LF0523 weather

Public forecast

Using degrees Celsius for public forecast. Weather courtesy of forecast.io.

Closest aviation weather report (METAR) to Altisurface du Glacier Lombard

Closest report is Chambéry-Savoie Airport, 36.9 nm (68.3 km) NNW. Retrieved 2020/08/10 15:30 UTC (9 minutes ago):

LFLB 101530Z AUTO 36003KT 300V040 CAVOK 34/19 Q1012 TEMPO VRB20G40KT 2000 TSRA SCT015 BKN070CB

Closest aviation forecast (TAF) to Altisurface du Glacier Lombard

Closest forecast is Chambéry-Savoie Airport, 36.9 nm (68.3 km) NNW. Retrieved 2020/08/10 12:47 UTC (3 hours ago):

TAF LFLB 101100Z 1012/1112 VRB03KT CAVOK TEMPO 1015/1101 FEW080CB PROB30 TEMPO 1015/1023 VRB20G40KT 2000 TSRA SCT015 BKN070CB